Date,TemperatureHighF,TemperatureAvgF,TemperatureLowF,DewpointHighF,DewpointAvgF,DewpointLowF,HumidityHigh,HumidityAvg,HumidityLow,PressureMaxIn,PressureMinIn,WindSpeedMaxMPH,WindSpeedAvgMPH,GustSpeedMaxMPH,PrecipitationSumIn
2014-1-1,10.8,8.0,5.0,7.0,3.4,0.0,89,81,78,30.48,30.28,10,2,0,0.00
2014-1-2,9.2,3.1,-4.6,0.0,-3.1,-9.0,83,75,65,30.61,30.44,10,1,0,0.00
2014-1-3,32.5,15.2,-5.4,24.0,8.5,-9.0,83,75,68,30.57,29.69,21,6,0,0.00
2014-1-4,36.0,22.6,8.4,30.0,15.1,1.0,79,73,68,30.29,29.67,13,3,0,0.00
2014-1-5,8.1,1.8,-10.6,1.0,-8.0,-20.0,78,63,54,30.59,30.29,18,6,0,0.00
2014-1-6,-1.9,-7.5,-12.6,-11.0,-16.0,-21.0,73,65,61,30.60,30.45,14,5,0,0.00
2014-1-7,19.7,6.4,-5.8,8.0,-1.2,-12.0,78,71,60,30.45,30.19,4,0,0,0.00
2014-1-8,15.4,10.5,7.0,5.0,2.6,1.0,81,71,60,30.56,30.36,5,0,0,0.00
2014-1-9,24.3,14.4,4.9,20.0,8.6,-1.0,85,77,69,30.53,30.08,11,2,0,0.00
2014-1-10,34.4,31.3,24.6,25.0,22.6,20.0,83,70,66,30.08,29.58,3,0,0,0.05
2014-1-11,34.6,30.4,25.3,28.0,25.3,20.0,86,81,67,29.89,29.59,12,2,0,0.00
2014-1-12,49.6,40.3,27.1,34.0,30.9,21.0,85,70,54,29.83,29.48,9,2,0,0.00
2014-1-13,45.4,37.2,32.3,36.0,28.9,25.0,84,72,53,29.84,29.61,12,3,0,0.00
2014-1-14,41.4,29.3,17.1,36.0,20.6,9.0,83,70,56,30.24,29.63,17,7,0,0.01
2014-1-15,31.8,21.8,14.3,22.0,10.6,7.0,75,63,45,30.27,29.73,13,3,0,0.00
2014-1-16,40.0,28.5,9.1,30.0,19.8,2.0,85,70,54,30.04,29.64,27,6,0,0.00
2014-1-17,9.9,9.5,9.3,5.0,3.8,3.0,81,77,74,30.04,30.02,13,6,0,0.00
2014-1-18,39.5,27.3,16.3,35.0,22.4,13.0,92,82,65,30.11,29.57,15,4,0,0.05
2014-1-19,54.0,37.2,17.8,34.0,26.3,14.0,85,67,43,30.05,29.63,10,2,0,0.05
2014-1-20,45.4,31.1,6.2,33.0,24.3,-2.0,85,77,58,30.44,29.82,19,4,0,0.00
2014-1-21,14.4,4.9,-5.0,6.0,-2.9,-11.0,79,70,62,30.59,30.15,7,2,0,0.00
2014-1-22,19.5,12.7,-2.8,13.0,4.4,-10.0,78,69,54,30.63,30.09,17,5,0,0.00
2014-1-23,8.3,0.6,-6.4,-2.0,-7.2,-13.0,77,69,62,30.92,30.61,10,2,0,0.00
2014-1-24,43.4,26.6,5.3,36.0,13.5,-3.0,81,58,48,30.61,29.64,14,3,0,0.00
2014-1-25,39.3,25.5,17.1,35.0,10.6,-2.0,89,55,33,30.08,29.60,20,4,0,0.00
2014-1-26,47.8,32.0,3.0,34.0,19.6,-9.0,74,60,47,30.30,29.46,21,7,0,0.00
2014-1-27,6.2,1.3,-2.5,-9.0,-10.9,-13.0,65,56,46,30.62,30.31,18,3,0,0.00
2014-1-28,16.2,5.9,-4.0,-3.0,-6.4,-11.0,74,58,39,30.60,30.36,15,2,0,0.00
2014-1-29,39.5,22.8,1.5,15.0,6.2,-5.0,73,51,32,30.35,29.75,14,3,0,0.00
2014-1-30,43.5,28.1,10.2,23.0,13.5,1.0,69,55,41,30.16,29.52,14,5,0,0.00
2014-1-31,19.7,13.6,8.0,8.0,2.1,-1.0,72,60,47,30.30,30.10,8,1,0,0.00
2014-2-1,24.7,16.9,9.4,20.0,12.2,4.0,85,81,72,30.36,30.01,12,1,0,0.02
2014-2-2,17.9,9.0,-0.8,7.0,2.0,-5.0,82,73,61,30.49,30.38,5,1,0,0.02
2014-2-3,32.6,18.4,5.0,17.0,8.9,0.0,82,67,51,30.40,30.32,10,1,0,0.00
2014-2-4,23.8,18.9,6.7,20.0,15.1,3.0,86,85,80,30.42,30.31,14,2,0,0.00
2014-2-5,7.4,3.9,-3.0,3.0,-1.2,-9.0,86,79,71,30.73,30.41,13,3,0,0.00
2014-2-6,9.1,0.9,-6.8,0.0,-5.6,-12.0,81,73,63,30.71,30.53,8,2,0,0.00
2014-2-7,20.6,9.5,-2.3,6.0,0.3,-7.0,81,67,50,30.53,30.30,7,1,0,0.01
2014-2-8,25.0,17.1,11.7,18.0,11.7,5.0,85,79,71,30.30,30.13,9,1,0,0.01
2014-2-9,15.8,5.3,-2.6,11.0,-0.5,-8.0,85,77,67,30.57,30.25,7,2,0,0.00
2014-2-10,5.5,-1.6,-9.1,-3.0,-7.6,-14.0,82,76,65,30.67,30.55,6,1,0,0.00
2014-2-11,18.3,7.6,-6.5,5.0,-1.2,-11.0,84,68,51,30.64,30.28,11,3,0,0.00
2014-2-12,26.3,19.6,12.0,18.0,12.6,2.0,84,74,62,30.28,29.97,13,2,0,0.00
2014-2-13,44.0,29.6,19.4,34.0,22.2,11.0,85,74,62,29.97,29.68,17,4,0,0.06
2014-2-14,19.3,14.5,7.3,14.0,8.4,2.0,89,77,68,30.20,29.78,14,2,0,0.06
2014-2-15,36.0,20.5,5.8,31.0,15.3,2.0,85,80,68,30.18,29.88,15,3,0,0.00
2014-2-16,28.3,24.8,20.9,22.0,18.8,16.0,92,78,67,30.27,30.06,12,3,0,0.00
2014-2-17,44.7,33.8,24.7,34.0,26.9,20.0,85,76,59,30.04,29.84,12,3,0,0.26
2014-2-18,55.0,43.6,29.1,38.0,31.6,25.0,84,64,46,29.93,29.62,11,2,0,0.26
2014-2-19,53.2,41.9,30.0,36.0,31.8,25.0,84,69,43,29.98,29.68,13,2,0,0.02
2014-2-20,41.8,35.9,26.0,36.0,28.5,21.0,86,75,68,29.68,29.31,22,5,0,0.20
2014-2-21,37.9,28.2,20.8,26.0,20.0,13.0,85,72,56,29.94,29.66,14,3,0,0.15
2014-2-22,32.7,25.9,20.1,23.0,16.6,12.0,85,68,51,30.25,29.93,6,1,0,0.02
2014-2-23,25.4,20.1,15.5,16.0,11.5,8.0,86,69,51,30.45,30.27,6,1,0,0.02
2014-2-24,27.2,19.6,14.1,17.0,13.0,10.0,86,76,53,30.48,30.35,5,0,0,0.01
2014-2-25,14.3,7.6,1.4,11.0,1.4,-5.0,89,76,64,30.57,30.42,12,2,0,0.01
2014-2-26,27.6,12.7,-2.9,16.0,3.8,-8.0,80,68,59,30.56,29.92,12,3,0,0.00
2014-2-27,16.7,4.6,-2.7,9.0,-7.0,-13.0,78,58,45,30.33,30.05,11,2,0,0.00
2014-2-28,43.1,20.8,3.5,24.0,11.3,-5.0,85,68,44,30.17,29.89,13,4,0,0.02
2014-3-1,20.6,6.5,-0.6,16.0,1.1,-6.0,83,78,73,30.63,30.17,13,4,0,0.02
2014-3-2,1.2,-3.0,-7.4,-6.0,-11.8,-16.0,77,65,52,30.74,30.62,13,3,0,0.00
2014-3-3,22.7,8.5,-7.5,5.0,-2.9,-13.0,76,60,46,30.70,30.32,12,2,0,0.02
2014-3-4,33.1,22.6,10.6,19.0,11.1,3.0,74,62,47,30.31,30.11,6,1,0,0.01
2014-3-5,26.0,23.4,21.6,20.0,17.0,14.0,83,77,71,30.43,30.22,10,3,0,0.01
2014-3-6,39.6,29.5,21.9,30.0,23.5,18.0,92,79,65,30.41,29.95,14,4,0,0.01
2014-3-7,44.7,35.3,26.2,36.0,29.8,22.0,85,80,71,30.18,29.84,7,2,0,0.01
2014-3-8,34.1,27.3,22.1,26.0,21.7,18.0,85,79,68,30.39,30.18,10,2,0,0.01
2014-3-9,58.0,42.0,22.0,40.0,30.3,18.0,85,65,48,30.35,29.81,14,3,0,0.01
2014-3-10,66.8,53.1,41.1,49.0,40.2,34.0,83,62,49,29.81,29.68,6,1,0,0.00
2014-3-11,46.2,42.3,37.2,41.0,35.5,28.0,83,77,66,29.99,29.60,16,4,0,0.00
2014-3-12,36.9,32.6,27.9,28.0,23.8,20.0,83,70,57,30.19,30.00,13,3,0,0.00
2014-3-13,64.5,46.3,28.1,40.0,31.4,24.0,84,59,36,30.16,29.70,10,2,0,0.00
2014-3-14,53.3,47.4,35.1,36.0,32.0,28.0,78,56,38,30.00,29.61,18,4,0,0.00
2014-3-15,48.8,37.7,31.4,31.0,27.8,23.0,84,69,43,30.28,30.00,12,3,0,0.00
2014-3-16,33.8,27.6,21.3,26.0,18.3,14.0,85,68,48,30.44,30.17,13,2,0,0.10
2014-3-17,48.1,34.0,21.4,27.0,21.3,15.0,79,61,43,30.18,29.59,17,5,0,0.10
2014-3-18,51.9,42.7,35.3,40.0,31.8,24.0,83,66,56,29.66,29.54,8,2,0,0.03
2014-3-19,43.7,36.9,31.4,38.0,29.8,27.0,85,76,62,30.09,29.67,18,4,0,0.03
2014-3-20,57.0,46.0,30.1,36.0,31.0,26.0,85,58,37,30.10,29.91,6,2,0,0.00
2014-3-21,58.0,42.8,31.1,40.0,32.0,25.0,82,67,42,30.19,29.80,13,4,0,0.00
2014-3-22,33.2,26.7,20.7,25.0,14.9,11.0,79,62,43,30.56,30.19,14,4,0,0.00
2014-3-23,33.7,25.4,16.2,15.0,11.7,9.0,73,57,42,30.62,30.43,7,1,0,0.00
2014-3-24,40.4,31.6,25.7,29.0,23.1,14.0,85,72,48,30.44,30.20,10,2,0,0.00
2014-3-25,32.8,26.5,20.7,21.0,13.0,5.0,79,58,38,30.43,30.24,13,4,0,0.00
2014-3-26,56.0,38.6,20.2,39.0,20.6,10.0,78,51,31,30.29,29.73,22,6,0,0.00
2014-3-27,56.9,46.4,37.8,50.0,39.4,34.0,86,77,67,29.73,29.25,19,6,0,0.28
2014-3-28,38.2,36.1,33.5,35.0,31.2,29.0,92,82,76,30.27,29.74,9,2,0,0.28
2014-3-29,54.9,41.8,30.8,32.0,29.2,25.0,87,64,40,30.34,30.18,7,1,0,0.00
2014-3-30,71.8,55.3,38.2,38.0,34.7,30.0,77,49,28,30.18,29.77,16,6,0,0.00
2014-3-31,77.0,55.4,28.9,49.0,38.7,16.0,83,55,35,29.83,29.37,20,8,0,0.06
2014-4-1,44.2,33.9,22.3,26.0,20.7,14.0,71,59,48,30.14,29.84,18,5,0,0.06
2014-4-2,49.1,41.6,33.0,38.0,31.3,25.0,85,68,52,30.15,29.87,12,3,0,0.00
2014-4-3,46.4,42.9,37.7,40.0,35.7,30.0,85,76,71,29.87,29.59,6,2,0,0.10
2014-4-4,41.4,35.9,31.9,32.0,29.9,27.0,88,79,65,30.19,29.61,21,7,0,0.01
2014-4-5,59.0,43.5,26.5,33.0,29.0,23.0,87,61,33,30.24,30.05,7,2,0,0.01
2014-4-6,59.8,50.8,42.9,47.0,38.8,30.0,84,64,44,30.07,29.88,6,1,0,0.02
2014-4-7,63.6,52.1,41.9,46.0,41.7,38.0,86,69,46,29.88,29.73,9,2,0,0.02
2014-4-8,56.8,46.7,40.0,38.0,35.3,29.0,86,67,35,30.01,29.85,10,4,0,0.00
2014-4-9,52.6,42.0,32.6,31.0,30.5,29.0,87,65,43,30.07,30.01,6,3,0,0.00
2014-4-10,69.0,59.6,48.2,40.0,30.2,26.0,63,35,21,30.01,29.76,15,3,0,0.00
2014-4-11,77.2,60.3,37.6,36.0,31.4,27.0,69,37,19,30.05,29.87,10,1,0,0.00
2014-4-12,86.8,71.4,59.0,62.0,50.9,36.0,83,50,36,29.87,29.47,14,4,0,0.27
2014-4-13,62.8,49.3,37.0,57.0,43.0,34.0,88,79,73,29.79,29.55,24,5,0,1.50
2014-4-14,39.4,34.0,29.4,33.0,25.5,19.0,89,72,49,30.21,29.79,18,4,0,0.03
2014-4-15,48.7,36.0,26.4,26.0,22.1,17.0,82,59,36,30.27,30.02,9,2,0,0.03
2014-4-16,65.4,51.6,38.7,40.0,33.0,27.0,85,51,33,30.02,29.75,26,7,0,0.01
2014-4-17,56.4,42.5,34.0,37.0,31.6,28.0,85,67,40,30.36,30.00,11,3,0,0.01
2014-4-18,66.8,50.3,33.0,39.0,35.2,30.0,92,60,32,30.39,30.17,10,3,0,0.00
2014-4-19,78.1,63.8,48.7,49.0,43.0,35.0,61,48,33,30.18,30.02,16,4,0,0.00
2014-4-20,85.7,72.5,57.9,58.0,52.6,46.0,67,51,38,30.04,29.88,11,3,0,0.00
2014-4-21,73.7,65.5,54.2,60.0,51.3,36.0,85,63,26,30.06,29.89,12,3,0,0.00
2014-4-22,69.1,55.5,39.2,38.0,34.9,32.0,74,48,31,30.16,30.02,12,2,0,0.00
2014-4-23,55.8,50.2,46.4,43.0,38.4,33.0,87,65,47,30.07,29.77,17,5,0,0.26
2014-4-24,57.5,52.4,47.4,53.0,46.4,41.0,87,80,68,29.81,29.58,14,3,0,0.11
2014-4-25,81.4,62.3,41.3,47.0,41.4,36.0,88,52,24,29.86,29.73,10,1,0,0.11
2014-4-26,74.2,63.9,53.2,51.0,45.6,39.0,62,52,44,29.83,29.64,11,3,0,0.00
2014-4-27,64.8,55.5,45.2,58.0,47.8,37.0,87,76,57,29.70,29.37,12,4,0,0.94
2014-4-28,65.7,58.9,52.4,60.0,53.0,47.0,89,81,72,29.45,29.26,11,2,0,0.09
2014-4-29,52.7,47.5,39.8,49.0,44.0,37.0,90,88,84,29.78,29.39,9,2,0,0.16
2014-4-30,45.3,42.5,38.0,43.0,39.4,34.0,95,89,86,29.87,29.78,11,3,0,0.27
2014-5-1,48.1,45.3,43.1,42.0,40.6,39.0,90,84,78,29.96,29.82,12,4,0,0.28
2014-5-2,69.8,55.3,42.4,46.0,41.9,38.0,86,63,36,29.95,29.70,11,2,0,0.00
2014-5-3,72.9,57.7,46.9,49.0,42.5,38.0,81,59,31,29.96,29.80,7,2,0,0.00
2014-5-4,66.4,55.8,47.9,45.0,42.6,38.0,87,63,45,30.06,29.86,11,2,0,0.00
2014-5-5,72.8,59.8,47.8,47.0,39.6,30.0,63,48,38,29.89,29.81,10,2,0,0.00
2014-5-6,77.2,63.9,48.4,56.0,45.9,37.0,65,53,42,29.86,29.59,13,3,0,0.00
2014-5-7,91.5,75.6,56.5,67.0,59.0,46.0,78,58,41,29.62,29.51,18,3,0,0.00
2014-5-8,81.4,74.3,60.5,67.0,63.4,51.0,84,69,55,29.70,29.57,15,4,0,0.03
2014-5-9,70.4,57.4,50.0,51.0,43.6,40.0,78,62,35,29.87,29.70,12,2,0,0.03
2014-5-10,83.1,63.8,47.3,61.0,49.9,41.0,85,64,30,29.89,29.70,17,2,0,0.09
2014-5-11,80.2,65.8,56.4,68.0,59.3,52.0,88,80,64,29.89,29.63,9,2,0,0.41
2014-5-12,74.8,62.9,51.3,68.0,57.5,47.0,91,83,73,29.96,29.62,10,2,0,0.15
2014-5-13,58.6,52.3,47.6,49.0,41.9,38.0,90,69,49,30.27,29.95,9,3,0,0.15
2014-5-14,65.4,53.3,39.5,46.0,40.7,37.0,95,65,40,30.30,30.10,4,0,0,0.03
2014-5-15,50.5,45.4,39.0,47.0,38.2,32.0,90,76,63,30.16,30.09,13,3,0,0.07
2014-5-16,58.3,46.5,36.5,38.0,33.4,31.0,84,63,38,30.15,30.09,6,1,0,0.07
2014-5-17,69.5,54.1,37.2,38.0,34.3,30.0,89,53,27,30.18,30.10,5,1,0,0.00
2014-5-18,73.5,60.2,41.4,47.0,40.4,35.0,82,51,31,30.19,29.99,17,3,0,0.00
2014-5-19,75.6,67.1,57.1,63.0,55.1,44.0,78,66,54,30.00,29.68,13,4,0,0.01
2014-5-20,87.7,74.5,62.9,68.0,63.9,59.0,89,71,49,29.81,29.72,6,1,0,0.06
2014-5-21,86.4,72.2,61.5,65.0,55.8,49.0,88,60,32,30.07,29.79,10,2,0,0.06
2014-5-22,80.2,64.9,55.0,54.0,50.6,48.0,81,62,33,30.25,30.06,4,0,0,0.00
2014-5-23,85.4,68.8,53.1,53.0,48.9,45.0,89,54,26,30.20,30.08,5,0,0,0.00
2014-5-24,83.8,70.1,59.5,58.0,52.5,47.0,73,55,35,30.15,30.01,6,1,0,0.00
2014-5-25,81.6,69.2,64.2,70.0,63.0,56.0,89,81,67,30.04,29.91,8,1,0,0.25
2014-5-26,84.8,72.2,64.1,69.0,64.4,58.0,89,77,58,29.99,29.87,9,1,0,0.20
2014-5-27,86.3,73.0,63.6,69.0,64.9,59.0,90,77,49,29.94,29.85,5,0,0,0.06
2014-5-28,84.5,72.9,64.1,69.0,64.2,59.0,90,76,55,29.99,29.89,7,1,0,0.06
2014-5-29,89.9,76.9,63.9,69.0,64.7,59.0,83,67,48,30.03,29.94,9,1,0,0.00
2014-5-30,91.3,79.6,69.8,71.0,67.8,66.0,89,69,46,30.06,29.98,7,1,0,0.00
2014-5-31,90.3,77.3,71.2,74.0,69.2,67.0,89,77,48,30.06,29.91,12,1,0,0.12
2014-6-1,89.5,78.0,67.7,70.0,68.2,64.0,89,74,51,29.92,29.69,16,3,0,0.18
2014-6-2,86.3,74.1,63.7,67.0,62.4,58.0,89,69,42,29.90,29.73,9,1,0,0.21
2014-6-3,86.0,71.0,59.0,65.0,60.2,55.0,89,71,45,30.00,29.77,7,1,0,0.86
2014-6-4,83.0,71.2,64.3,68.0,63.6,59.0,89,78,57,29.88,29.52,10,1,0,1.12
2014-6-5,79.1,68.9,61.6,65.0,61.5,58.0,90,78,58,29.95,29.84,12,1,0,0.00
2014-6-6,91.8,75.0,60.3,69.0,63.7,56.0,89,70,42,29.94,29.84,6,0,0,0.00
2014-6-7,74.1,67.4,60.9,68.0,62.8,57.0,89,85,72,30.00,29.86,10,1,0,1.82
2014-6-8,79.6,66.3,59.0,62.0,58.4,56.0,90,77,52,30.08,29.97,6,1,0,1.82
2014-6-9,78.5,68.3,58.2,63.0,59.0,54.0,90,73,56,29.97,29.85,3,0,0,0.00
2014-6-10,77.2,68.5,59.8,62.0,56.5,51.0,85,66,52,29.88,29.82,5,0,0,0.00
2014-6-11,89.6,72.4,57.5,61.0,57.9,54.0,89,64,36,29.84,29.73,6,0,0,0.00
2014-6-12,77.2,69.9,61.7,62.0,53.3,42.0,77,57,38,30.01,29.74,10,2,0,0.00
2014-6-13,83.9,67.4,49.2,50.0,45.9,43.0,81,50,25,30.10,29.92,6,1,0,0.00
2014-6-14,85.0,71.9,57.3,64.0,56.6,50.0,76,60,49,29.95,29.66,14,4,0,0.00
2014-6-15,85.0,75.0,66.0,65.0,61.7,58.0,87,65,42,29.91,29.51,14,2,0,0.00
2014-6-16,89.9,76.3,63.8,76.0,67.7,59.0,89,76,57,29.95,29.65,15,2,0,0.00
2014-6-17,88.3,77.1,63.1,76.0,68.0,58.0,89,74,60,29.91,29.73,16,3,0,0.04
2014-6-18,92.4,82.0,70.9,78.0,74.1,67.0,89,78,62,29.86,29.72,9,2,0,0.01
2014-6-19,84.3,75.3,66.1,75.0,69.8,61.0,89,83,69,29.96,29.78,8,2,0,1.12
2014-6-20,97.8,79.3,61.9,73.0,62.3,52.0,85,60,24,29.99,29.84,0,0,0,1.12
2014-6-21,94.1,79.0,67.0,71.0,66.9,63.0,89,68,45,29.93,29.81,10,0,0,0.22
2014-6-22,84.7,73.3,68.9,71.0,68.0,66.0,89,84,64,29.87,29.76,0,0,0,0.12
2014-6-23,87.0,74.5,65.7,72.0,66.3,62.0,89,77,56,29.90,29.80,0,0,0,0.12
2014-6-24,86.6,75.4,64.3,66.0,63.0,59.0,89,68,42,29.95,29.89,0,0,0,0.00
2014-6-25,91.9,78.0,62.6,66.0,62.1,59.0,89,61,36,30.00,29.92,0,0,0,0.00
2014-6-26,76.1,70.7,67.1,72.0,65.7,62.0,89,84,76,29.97,29.83,0,0,0,2.48
2014-6-27,84.3,74.4,67.2,76.0,68.5,62.0,89,82,71,29.91,29.70,14,1,0,0.95
2014-6-28,90.8,76.6,64.9,76.0,69.9,61.0,89,80,60,29.87,29.70,15,2,0,0.42
2014-6-29,85.5,74.1,62.9,76.0,69.0,59.0,89,84,73,29.90,29.72,11,1,0,0.12
2014-6-30,80.1,71.6,64.4,76.0,66.9,59.0,90,85,77,29.78,29.58,10,1,0,1.41
2014-7-1,79.6,69.5,61.9,64.0,59.8,56.0,90,72,55,29.91,29.70,10,2,0,1.41
2014-7-2,70.5,61.3,55.6,59.0,54.8,52.0,90,79,64,30.11,29.91,6,1,0,0.00
2014-7-3,83.2,66.4,51.3,58.0,53.7,48.0,90,67,39,30.20,30.11,5,0,0,0.00
2014-7-4,86.4,71.8,57.3,63.0,58.9,54.0,90,67,44,30.28,30.14,10,1,0,0.00
2014-7-5,76.9,69.7,63.9,71.0,64.6,59.0,89,84,74,30.15,29.93,9,2,0,0.85
2014-7-6,92.4,80.5,69.3,80.0,72.7,65.0,89,78,64,29.93,29.69,9,1,0,0.85
2014-7-7,93.4,79.7,68.0,73.0,68.2,63.0,89,70,45,29.80,29.66,5,0,0,0.00
2014-7-8,82.9,74.0,64.5,66.0,61.9,59.0,88,68,47,29.91,29.71,7,1,0,0.00
2014-7-9,84.8,72.4,58.5,62.0,59.2,55.0,88,66,44,30.03,29.91,3,0,0,0.00
2014-7-10,87.4,75.2,62.8,64.0,61.1,59.0,87,64,42,30.08,29.99,12,2,0,0.00
2014-7-11,78.7,72.0,67.2,73.0,66.4,60.0,89,83,70,30.11,29.91,8,1,0,0.17
2014-7-12,91.3,77.1,69.7,77.0,70.8,65.0,89,81,64,30.03,29.86,7,1,0,0.01
2014-7-13,90.1,77.6,65.9,73.0,67.0,61.0,89,71,47,30.00,29.89,9,1,0,0.01
2014-7-14,76.6,69.4,58.3,68.0,57.2,48.0,89,67,42,30.05,29.88,11,2,0,0.01
2014-7-15,75.0,63.1,53.6,56.0,52.3,50.0,89,69,46,30.11,30.02,12,1,0,0.01
2014-7-16,82.7,68.3,57.7,57.0,54.2,52.0,89,64,36,30.07,29.99,5,0,0,0.00
2014-7-17,85.4,69.1,55.2,59.0,56.2,52.0,89,67,39,30.07,30.01,7,0,0,0.00
2014-7-18,84.1,71.6,59.0,62.0,59.6,56.0,89,68,43,30.07,29.98,7,2,0,0.00
2014-7-19,85.4,74.6,63.8,65.0,62.8,60.0,88,68,48,30.02,29.91,9,2,0,0.00
2014-7-20,88.1,76.7,65.4,69.0,65.9,62.0,88,71,51,29.95,29.84,12,2,0,0.00
2014-7-21,95.0,83.3,70.8,79.0,73.4,66.0,86,73,59,29.89,29.81,14,3,0,0.00
2014-7-22,82.6,82.0,81.7,77.0,76.1,76.0,83,83,82,29.85,29.84,10,3,0,0.00
2014-7-23,87.4,77.0,64.7,66.0,62.0,59.0,84,62,44,30.17,30.11,6,1,0,0.00
2014-7-24,74.1,71.5,69.3,67.0,63.9,62.0,85,77,70,30.11,29.83,12,2,0,0.03
2014-7-25,85.7,73.2,64.3,73.0,65.7,60.0,89,78,64,29.95,29.72,14,2,0,0.15
2014-7-26,91.7,78.4,69.7,74.0,70.9,65.0,89,79,54,29.83,29.73,9,0,0,0.00
2014-7-27,79.0,72.7,64.6,71.0,62.5,59.0,89,72,54,30.08,29.83,12,2,0,0.00
2014-7-28,78.7,68.0,60.0,63.0,59.0,56.0,89,75,49,30.20,30.08,6,1,0,0.01
2014-7-29,83.5,73.8,60.5,62.0,58.5,57.0,89,61,42,30.17,30.05,4,0,0,0.00
2014-7-30,84.5,70.2,57.5,61.0,57.8,54.0,89,68,41,30.11,30.04,6,1,0,0.00
2014-7-31,86.4,70.6,57.8,65.0,59.4,54.0,89,71,40,30.08,30.01,4,0,0,0.00
2014-8-1,89.4,73.1,59.6,66.0,61.4,55.0,89,69,45,30.08,30.02,6,0,0,0.01
2014-8-2,92.1,76.2,60.5,66.0,62.5,57.0,89,66,38,30.14,30.05,5,0,0,0.00
2014-8-3,92.7,78.9,68.4,67.0,65.1,63.0,84,65,42,30.11,29.99,6,1,0,0.00
2014-8-4,92.2,78.4,66.9,71.0,67.5,63.0,88,71,47,30.04,29.94,3,0,0,0.00
2014-8-5,85.8,74.5,65.6,71.0,67.4,62.0,88,79,59,30.05,29.97,2,0,0,0.00
2014-8-6,72.2,68.6,66.7,68.0,63.4,61.0,88,84,80,30.05,29.96,6,0,0,0.82
2014-8-7,70.8,68.5,66.7,67.0,62.2,59.0,89,80,76,29.97,29.93,3,0,0,0.01
2014-8-8,81.7,73.3,64.8,70.0,66.0,59.0,89,78,65,30.01,29.96,4,0,0,0.02
2014-8-9,83.4,73.2,66.0,69.0,65.8,62.0,89,78,60,30.05,29.98,7,0,0,0.00
2014-8-10,83.4,73.5,65.7,70.0,66.2,61.0,89,79,60,30.03,29.97,3,0,0,0.00
2014-8-11,81.0,72.2,63.5,66.0,62.9,57.0,89,74,49,30.03,29.95,13,2,0,0.00
2014-8-12,80.4,67.6,56.8,64.0,56.7,53.0,88,70,45,30.09,30.02,9,1,0,0.00
2014-8-13,85.9,71.0,56.6,63.0,59.2,53.0,89,69,45,30.13,30.04,6,0,0,0.00
2014-8-14,90.8,74.5,59.3,67.0,62.4,55.0,88,69,42,30.09,29.95,5,0,0,0.00
2014-8-15,73.8,71.0,67.7,69.0,66.6,63.0,88,86,78,30.00,29.85,5,0,0,0.47
2014-8-16,82.8,72.5,67.4,71.0,66.6,62.0,88,82,67,29.89,29.81,4,0,0,0.56
2014-8-17,90.2,76.6,63.4,74.0,67.3,58.0,87,74,54,29.96,29.85,5,0,0,0.00
2014-8-18,92.5,79.9,69.6,73.0,69.6,65.0,88,73,46,29.92,29.69,5,1,0,0.00
2014-8-19,89.4,78.1,70.3,70.0,68.0,66.0,88,73,47,29.79,29.68,3,0,0,0.00
2014-8-20,85.6,74.2,67.0,76.0,68.1,61.0,88,82,69,29.91,29.76,6,1,0,0.55
2014-8-21,90.1,81.5,75.3,78.0,74.4,70.0,87,79,64,29.85,29.74,11,2,0,0.13
2014-8-22,95.2,82.1,73.8,80.0,74.6,69.0,87,79,60,29.91,29.77,7,0,0,0.15
2014-8-23,91.2,80.0,71.3,80.0,71.7,63.0,85,76,60,29.92,29.79,8,1,0,0.01
2014-8-24,97.6,84.6,74.7,77.0,73.7,68.0,86,71,49,29.82,29.77,14,2,0,0.01
2014-8-25,92.8,82.0,73.0,78.0,73.0,67.0,85,75,57,30.01,29.81,3,0,0,0.03
2014-8-26,83.4,73.1,65.4,68.0,65.0,59.0,86,76,57,30.15,29.99,10,0,0,0.12
2014-8-27,79.0,72.5,67.4,70.0,66.5,63.0,86,82,73,30.15,30.04,3,0,0,0.01
2014-8-28,82.7,73.0,66.8,75.0,67.2,60.0,86,82,76,30.05,29.84,4,0,0,1.73
2014-8-29,87.3,73.3,66.1,75.0,65.0,58.0,86,75,63,29.94,29.73,6,1,0,0.29
2014-8-30,83.3,72.9,65.5,72.0,64.1,56.0,86,74,63,29.88,29.76,5,0,0,0.33
2014-8-31,89.8,75.6,64.0,76.0,66.3,56.0,86,73,59,29.86,29.60,10,2,0,1.47
2014-9-1,81.9,73.0,65.6,69.0,64.0,57.0,87,74,58,29.85,29.63,5,1,0,1.47
2014-9-2,83.6,71.0,60.3,63.0,60.7,55.0,87,72,47,29.96,29.84,4,0,0,0.00
2014-9-3,87.3,73.5,61.2,74.0,65.8,55.0,87,77,63,29.94,29.72,8,2,0,0.03
2014-9-4,94.8,84.4,76.7,77.0,74.0,72.0,86,72,55,29.86,29.70,12,2,0,0.03
2014-9-5,78.0,65.1,57.4,73.0,59.9,54.0,87,83,77,30.23,29.86,7,2,0,0.06
2014-9-6,78.3,62.5,48.7,56.0,52.1,44.0,87,71,42,30.29,30.20,9,0,0,0.07
2014-9-7,79.1,64.5,51.2,58.0,52.7,46.0,87,68,41,30.22,30.05,11,1,0,0.00
2014-9-8,75.1,65.6,56.4,67.0,59.5,52.0,87,81,61,30.06,29.81,9,1,0,0.07
2014-9-9,78.6,70.7,65.7,72.0,64.7,58.0,86,81,75,29.92,29.61,12,1,0,2.57
2014-9-10,70.8,63.8,53.5,67.0,57.2,49.0,88,80,72,30.05,29.52,13,3,0,2.78
2014-9-11,55.6,52.7,49.7,50.0,47.1,45.0,88,82,75,30.34,30.06,10,2,0,0.02
2014-9-12,52.8,48.9,43.0,47.0,44.3,39.0,89,84,73,30.45,30.33,10,1,0,0.06
2014-9-13,65.1,50.1,36.6,48.0,40.0,32.0,88,71,43,30.44,30.27,11,1,0,0.07
2014-9-14,72.6,60.7,46.1,55.0,50.1,43.0,88,70,48,30.27,30.09,5,1,0,0.00
2014-9-15,63.3,58.3,48.1,58.0,51.7,45.0,88,79,64,30.27,30.05,9,2,0,0.03
2014-9-16,71.3,55.6,41.1,54.0,46.1,36.0,88,73,46,30.28,30.04,6,0,0,0.00
2014-9-17,78.9,64.8,52.9,62.0,56.2,49.0,88,75,53,30.03,29.89,3,0,0,0.00
2014-9-18,76.2,62.9,52.5,61.0,53.8,47.0,87,73,48,30.09,29.98,7,0,0,0.00
2014-9-19,81.2,69.3,58.6,69.0,62.5,55.0,88,80,64,30.02,29.78,12,4,0,0.00
2014-9-20,86.0,74.6,63.7,69.0,64.0,52.0,88,71,44,29.98,29.78,11,2,0,0.18
2014-9-21,70.5,61.6,53.5,53.0,51.1,49.0,86,70,51,30.24,29.97,10,2,0,0.00
2014-9-22,76.9,60.5,47.6,55.0,50.9,43.0,88,73,46,30.33,30.20,4,0,0,0.00
2014-9-23,73.7,62.5,53.2,57.0,53.7,49.0,88,74,54,30.26,30.14,5,1,0,0.00
2014-9-24,67.7,61.8,57.6,61.0,55.8,52.0,87,81,74,30.24,30.14,6,1,0,0.25
2014-9-25,80.2,68.7,59.0,65.0,59.6,54.0,87,74,55,30.21,30.11,6,0,0,0.25
2014-9-26,84.8,71.4,61.2,64.0,60.4,57.0,87,70,43,30.15,30.08,9,1,0,0.00
2014-9-27,85.1,71.1,62.9,68.0,62.7,58.0,87,76,52,30.16,30.04,6,0,0,0.11
2014-9-28,86.6,70.8,58.4,67.0,59.5,52.0,87,70,44,30.14,30.04,3,0,0,0.00
2014-9-29,85.0,67.4,57.7,65.0,57.7,52.0,87,73,48,30.07,29.95,3,0,0,0.00
2014-9-30,68.9,64.1,59.0,61.0,58.5,55.0,88,82,75,29.96,29.81,7,1,0,0.01
2014-10-1,73.9,65.0,58.9,66.0,59.5,52.0,88,82,76,29.83,29.72,4,1,0,0.02
2014-10-2,66.6,62.7,55.8,58.0,56.3,53.0,89,80,75,29.79,29.67,12,1,0,0.45
2014-10-3,55.6,47.9,40.1,52.0,37.6,26.0,89,68,51,30.05,29.77,13,3,0,0.45
2014-10-4,54.6,43.1,35.0,34.0,30.2,25.0,77,61,44,30.00,29.82,9,1,0,0.00
2014-10-5,66.5,53.6,42.2,47.0,40.7,34.0,84,63,39,29.81,29.63,12,1,0,0.00
2014-10-6,66.6,56.2,46.1,51.0,44.1,36.0,87,66,42,29.72,29.62,13,1,0,0.01
2014-10-7,68.8,59.7,52.1,50.0,44.7,40.0,83,60,36,29.95,29.62,13,2,0,0.01
2014-10-8,72.1,57.7,41.4,53.0,42.0,38.0,88,60,29,30.13,29.97,3,0,0,0.05
2014-10-9,65.8,56.3,50.0,53.0,44.9,36.0,88,67,47,30.19,30.04,5,0,0,0.67
2014-10-10,56.1,48.7,41.4,40.0,38.2,36.0,87,68,49,30.26,30.16,5,1,0,0.00
2014-10-11,64.4,49.0,36.7,42.0,38.5,33.0,89,70,40,30.29,30.05,5,0,0,0.00
2014-10-12,57.7,50.3,40.5,51.0,45.4,37.0,88,83,75,30.05,29.79,10,2,0,0.01
2014-10-13,54.4,53.7,53.0,49.0,48.0,47.0,84,80,79,29.81,29.59,13,2,0,1.28
2014-10-14,63.2,55.8,51.5,50.0,46.2,41.0,89,72,49,29.92,29.59,17,6,0,1.75
2014-10-15,68.3,53.3,41.7,43.0,40.5,37.0,87,65,35,30.01,29.89,10,1,0,0.00
2014-10-16,76.6,57.0,39.8,53.0,44.4,36.0,89,66,42,29.89,29.66,11,1,0,0.00
2014-10-17,60.5,55.3,49.6,46.0,44.3,42.0,76,67,58,30.11,29.72,12,3,0,0.00
2014-10-18,57.6,48.0,41.4,45.0,41.5,38.0,88,79,61,30.27,30.11,11,1,0,0.00
2014-10-19,67.7,53.5,39.7,50.0,44.5,36.0,88,73,52,30.19,29.90,9,1,0,0.01
2014-10-20,71.3,57.8,45.0,49.0,45.3,42.0,88,66,38,30.05,29.90,9,1,0,0.00
2014-10-21,68.8,54.0,41.1,49.0,44.1,37.0,88,71,47,30.17,30.05,7,1,0,0.00
2014-10-23,71.1,61.6,52.6,61.0,53.4,48.0,88,76,53,30.05,29.98,4,0,0,0.00
2014-10-24,68.7,58.9,50.6,63.0,53.5,45.0,89,82,78,30.02,29.87,9,1,0,0.01
2014-10-25,71.5,58.1,47.9,50.0,44.5,40.0,89,64,33,30.11,29.96,4,0,0,0.01
2014-10-26,72.6,59.7,46.9,55.0,43.4,34.0,81,56,37,30.06,29.55,17,4,0,0.00
2014-10-27,71.6,63.3,51.2,60.0,54.9,45.0,88,75,58,29.85,29.49,7,2,0,0.00
2014-10-28,55.4,49.3,41.2,46.0,37.0,34.0,78,63,49,30.13,29.86,12,3,0,0.00
2014-10-29,55.1,45.8,38.2,38.0,35.2,34.0,87,67,52,30.25,30.12,6,1,0,0.00
2014-10-30,62.6,50.1,38.1,44.0,39.2,34.0,87,68,49,30.27,30.01,13,2,0,0.01
2014-10-31,45.5,35.5,28.5,37.0,22.7,19.0,76,60,44,30.56,30.28,13,3,0,0.00
2014-11-1,47.5,35.4,22.2,27.0,23.4,19.0,92,64,41,30.55,30.28,11,3,0,0.00
2014-11-2,61.1,50.2,36.6,38.0,31.6,25.0,63,50,39,30.28,29.96,17,5,0,0.00
2014-11-3,65.5,56.7,47.3,56.0,46.8,37.0,86,70,59,29.96,29.83,9,3,0,0.00
2014-11-4,59.0,49.1,42.3,45.0,38.3,36.0,85,68,44,30.14,29.94,11,2,0,0.00
2014-11-5,59.3,49.7,40.9,47.0,38.8,34.0,78,67,48,30.12,29.93,11,2,0,0.01
2014-11-6,48.3,41.5,30.8,37.0,31.8,27.0,87,69,50,30.35,30.03,15,4,0,0.01
2014-11-7,58.5,45.8,30.5,43.0,33.5,27.0,89,65,41,30.30,29.77,15,3,0,0.00
2014-11-8,50.7,42.4,36.2,42.0,30.6,27.0,76,63,50,30.17,29.87,16,4,0,0.00
2014-11-9,56.6,47.5,38.4,39.0,35.3,29.0,71,63,51,29.97,29.67,4,0,0,0.00
2014-11-10,64.5,46.3,29.8,48.0,38.3,26.0,88,74,54,29.85,29.37,16,4,0,0.00
2014-11-11,29.7,25.5,22.4,26.0,19.2,13.0,89,77,65,30.43,29.87,15,5,0,0.00
2014-11-12,23.3,21.2,15.8,17.0,13.3,10.0,83,71,60,30.53,30.43,11,4,0,0.00
2014-11-13,25.6,22.4,16.7,18.0,15.2,11.0,81,74,62,30.57,30.50,11,4,0,0.00
2014-11-14,28.4,19.7,10.5,13.0,9.8,6.0,84,67,43,30.55,30.41,4,0,0,0.00
2014-11-15,29.2,24.0,16.5,24.0,17.4,9.0,89,76,59,30.41,30.20,5,0,0,0.00
2014-11-16,27.6,18.4,9.8,25.0,12.4,5.0,89,77,65,30.23,30.09,10,2,0,0.01
2014-11-17,16.6,13.8,10.5,11.0,6.8,4.0,81,73,66,30.29,30.11,19,6,0,0.01
2014-11-18,25.7,18.2,9.0,18.0,9.9,2.0,79,70,58,30.28,29.86,8,2,0,0.00
2014-11-19,29.9,25.2,21.4,23.0,17.3,14.0,76,71,65,30.21,29.82,15,4,0,0.00
2014-11-20,27.9,22.4,16.8,17.0,14.1,11.0,78,70,63,30.30,30.20,7,2,0,0.00
2014-11-30,35.0,26.3,21.4,18.1,17.2,14.7,76,69,46,30.31,30.10,4,1,9,0.00
2014-12-3,34.1,29.4,24.1,20.1,17.7,16.1,76,62,50,30.43,30.31,16,1,16,0.00
2014-12-4,34.4,30.1,22.2,29.3,21.1,15.0,85,69,55,30.40,30.18,16,2,16,0.00
2014-12-5,42.6,37.0,33.3,39.5,33.5,29.6,92,87,84,30.39,30.15,9,0,9,0.00
2014-12-6,42.8,35.5,31.5,31.5,28.9,25.8,90,78,56,30.64,30.39,12,1,12,0.00
2014-12-7,38.0,34.8,30.8,34.5,31.1,27.5,89,86,78,30.60,30.18,24,3,24,0.01
2014-12-8,44.1,38.5,29.6,38.5,32.8,22.9,89,80,65,30.35,30.12,20,4,20,0.00
2014-12-9,32.8,27.3,21.6,26.1,22.6,17.8,89,82,75,30.54,30.35,15,1,15,0.00
2014-12-10,33.7,31.0,26.5,28.7,26.9,23.7,89,85,81,30.45,30.32,16,1,16,0.00
2014-12-11,38.2,33.7,31.2,32.5,29.6,27.5,92,85,77,30.35,30.26,5,0,7,0.00
2014-12-12,49.9,40.7,34.3,42.7,36.5,30.6,92,85,75,30.34,30.21,9,1,13,0.00
2014-12-13,56.9,51.1,44.1,51.1,46.9,41.1,90,85,81,30.21,29.99,14,2,18,0.00
2014-12-14,58.1,55.2,52.9,54.0,52.0,50.0,92,89,86,29.99,29.80,17,3,17,0.00
2014-12-15,53.5,49.8,33.9,50.6,46.9,31.6,97,89,87,29.84,29.55,21,3,21,0.45
2014-12-16,33.7,25.1,15.8,31.6,20.3,11.0,92,82,77,30.42,29.84,18,6,27,0.00
2014-12-17,27.9,20.3,14.1,20.1,15.1,10.6,92,80,68,30.45,30.36,10,1,10,0.00
2014-12-18,32.8,26.8,19.7,25.3,21.3,16.5,89,80,68,30.39,30.28,7,0,7,0.00
2014-12-19,34.4,31.3,28.2,31.2,28.1,24.1,92,88,83,30.34,30.24,10,1,11,0.00
2014-12-20,38.4,35.2,32.5,35.9,32.9,29.9,92,91,90,30.25,30.12,12,1,12,0.00
2014-12-21,43.9,41.1,38.4,41.2,38.1,35.7,91,89,83,30.12,29.77,21,4,26,0.02
2014-12-22,43.8,41.8,40.4,41.3,39.2,37.1,91,90,88,29.77,29.45,15,3,17,0.21
2014-12-23,40.5,37.8,34.5,38.0,35.1,31.6,92,90,88,29.86,29.45,11,1,11,0.13
2014-12-24,37.0,35.3,33.2,34.9,32.7,30.6,92,90,89,29.84,29.75,10,2,14,0.22
2014-12-25,49.5,40.0,32.9,36.2,32.6,30.2,92,76,56,29.81,29.72,13,4,22,0.09
2014-12-26,41.6,36.2,32.3,34.7,32.7,29.3,91,87,72,30.03,29.80,12,1,12,0.00
2014-12-27,36.0,28.4,19.0,33.1,24.5,15.9,96,85,78,30.30,29.97,16,2,16,0.00
2014-12-28,35.7,26.1,16.8,27.1,21.1,14.3,90,82,64,30.29,30.19,7,0,7,0.00
2014-12-29,30.1,21.6,6.8,27.0,16.6,1.4,89,81,63,30.77,30.29,16,2,16,0.00
2014-12-30,11.0,5.0,0.6,1.4,-2.4,-6.5,79,71,57,30.98,30.77,11,2,13,0.00
2014-12-31,21.7,11.0,-0.4,9.9,2.3,-6.4,80,68,53,30.86,30.29,14,3,21,0.00
2015-1-1,37.8,24.3,13.8,22.8,15.6,7.1,84,70,51,30.28,30.08,11,2,17,0.00
2015-1-2,33.7,27.8,19.7,26.5,22.2,17.0,92,80,66,30.34,30.07,10,1,10,0.00